sensor_id;sensor_type;location;lat;lon;timestamp;temperature;humidity
3699;DHT22;1865;50.918;7.092;2023-05-28T00:00:05;17.20;46.00
3699;DHT22;1865;50.918;7.092;2023-05-28T00:02:32;17.20;45.90
3699;DHT22;1865;50.918;7.092;2023-05-28T00:04:57;17.20;46.30
3699;DHT22;1865;50.918;7.092;2023-05-28T00:07:24;17.20;46.40
3699;DHT22;1865;50.918;7.092;2023-05-28T00:09:50;17.10;46.60
3699;DHT22;1865;50.918;7.092;2023-05-28T00:12:16;17.10;46.70
3699;DHT22;1865;50.918;7.092;2023-05-28T00:14:41;17.10;46.90
3699;DHT22;1865;50.918;7.092;2023-05-28T00:17:07;17.00;46.80
3699;DHT22;1865;50.918;7.092;2023-05-28T00:19:32;16.90;47.10
3699;DHT22;1865;50.918;7.092;2023-05-28T00:21:58;16.90;47.30
3699;DHT22;1865;50.918;7.092;2023-05-28T00:24:23;16.80;47.20
3699;DHT22;1865;50.918;7.092;2023-05-28T00:26:49;16.70;46.90
3699;DHT22;1865;50.918;7.092;2023-05-28T00:29:14;16.70;47.30
3699;DHT22;1865;50.918;7.092;2023-05-28T00:31:40;16.50;47.00
3699;DHT22;1865;50.918;7.092;2023-05-28T00:34:05;16.50;47.20
3699;DHT22;1865;50.918;7.092;2023-05-28T00:36:31;16.50;47.10
3699;DHT22;1865;50.918;7.092;2023-05-28T00:38:56;16.50;47.30
3699;DHT22;1865;50.918;7.092;2023-05-28T00:41:22;16.40;46.90
3699;DHT22;1865;50.918;7.092;2023-05-28T00:43:48;16.30;47.20
3699;DHT22;1865;50.918;7.092;2023-05-28T00:46:17;16.30;47.20
3699;DHT22;1865;50.918;7.092;2023-05-28T00:48:43;16.30;47.30
3699;DHT22;1865;50.918;7.092;2023-05-28T00:51:10;16.20;47.30
3699;DHT22;1865;50.918;7.092;2023-05-28T00:53:37;16.20;47.60
3699;DHT22;1865;50.918;7.092;2023-05-28T00:56:03;16.20;47.50
3699;DHT22;1865;50.918;7.092;2023-05-28T00:58:29;16.10;47.50
3699;DHT22;1865;50.918;7.092;2023-05-28T01:00:55;16.10;47.30
3699;DHT22;1865;50.918;7.092;2023-05-28T01:03:21;16.10;47.30
3699;DHT22;1865;50.918;7.092;2023-05-28T01:05:47;16.00;47.10
3699;DHT22;1865;50.918;7.092;2023-05-28T01:08:13;16.00;47.20
3699;DHT22;1865;50.918;7.092;2023-05-28T01:10:39;16.00;47.10
3699;DHT22;1865;50.918;7.092;2023-05-28T01:13:07;15.90;47.20
3699;DHT22;1865;50.918;7.092;2023-05-28T01:15:33;15.80;47.80
3699;DHT22;1865;50.918;7.092;2023-05-28T01:18:00;15.90;47.20
3699;DHT22;1865;50.918;7.092;2023-05-28T01:20:27;15.80;46.80
3699;DHT22;1865;50.918;7.092;2023-05-28T01:23:04;15.80;47.50
3699;DHT22;1865;50.918;7.092;2023-05-28T01:25:31;15.70;47.50
3699;DHT22;1865;50.918;7.092;2023-05-28T01:27:59;15.70;47.80
3699;DHT22;1865;50.918;7.092;2023-05-28T01:30:27;15.60;47.80
3699;DHT22;1865;50.918;7.092;2023-05-28T01:32:52;15.50;48.40
3699;DHT22;1865;50.918;7.092;2023-05-28T01:35:18;15.40;48.20
3699;DHT22;1865;50.918;7.092;2023-05-28T01:37:47;15.30;48.50
3699;DHT22;1865;50.918;7.092;2023-05-28T01:40:14;15.30;48.90
3699;DHT22;1865;50.918;7.092;2023-05-28T01:42:40;15.30;49.00
3699;DHT22;1865;50.918;7.092;2023-05-28T01:45:08;15.40;49.00
3699;DHT22;1865;50.918;7.092;2023-05-28T01:47:34;15.40;49.00
3699;DHT22;1865;50.918;7.092;2023-05-28T01:50:00;15.40;49.30
3699;DHT22;1865;50.918;7.092;2023-05-28T01:52:26;15.40;49.00
3699;DHT22;1865;50.918;7.092;2023-05-28T01:54:51;15.40;48.80
3699;DHT22;1865;50.918;7.092;2023-05-28T01:57:17;15.30;48.60
3699;DHT22;1865;50.918;7.092;2023-05-28T01:59:43;15.30;49.00
3699;DHT22;1865;50.918;7.092;2023-05-28T02:02:08;15.20;48.80
3699;DHT22;1865;50.918;7.092;2023-05-28T02:04:34;15.20;48.70
3699;DHT22;1865;50.918;7.092;2023-05-28T02:06:59;15.30;48.60
3699;DHT22;1865;50.918;7.092;2023-05-28T02:09:25;15.30;48.60
3699;DHT22;1865;50.918;7.092;2023-05-28T02:11:50;15.30;48.60
3699;DHT22;1865;50.918;7.092;2023-05-28T02:14:16;15.20;48.80
3699;DHT22;1865;50.918;7.092;2023-05-28T02:16:43;15.10;49.30
3699;DHT22;1865;50.918;7.092;2023-05-28T02:19:10;15.00;49.40
3699;DHT22;1865;50.918;7.092;2023-05-28T02:21:37;14.90;49.80
3699;DHT22;1865;50.918;7.092;2023-05-28T02:24:03;14.90;49.60
3699;DHT22;1865;50.918;7.092;2023-05-28T02:26:28;14.90;49.90
3699;DHT22;1865;50.918;7.092;2023-05-28T02:28:54;15.00;49.50
3699;DHT22;1865;50.918;7.092;2023-05-28T02:31:19;15.00;49.20
3699;DHT22;1865;50.918;7.092;2023-05-28T02:33:45;14.90;49.40
3699;DHT22;1865;50.918;7.092;2023-05-28T02:36:12;14.80;49.70
3699;DHT22;1865;50.918;7.092;2023-05-28T02:38:38;14.80;49.70
3699;DHT22;1865;50.918;7.092;2023-05-28T02:41:04;14.80;49.40
3699;DHT22;1865;50.918;7.092;2023-05-28T02:43:30;14.80;49.40
3699;DHT22;1865;50.918;7.092;2023-05-28T02:45:55;14.70;49.30
3699;DHT22;1865;50.918;7.092;2023-05-28T02:48:21;14.70;49.70
3699;DHT22;1865;50.918;7.092;2023-05-28T02:50:46;14.60;49.80
3699;DHT22;1865;50.918;7.092;2023-05-28T02:53:12;14.50;50.10
3699;DHT22;1865;50.918;7.092;2023-05-28T02:55:37;14.40;50.70
3699;DHT22;1865;50.918;7.092;2023-05-28T02:58:03;14.40;50.60
3699;DHT22;1865;50.918;7.092;2023-05-28T03:00:30;14.50;50.40
3699;DHT22;1865;50.918;7.092;2023-05-28T03:02:56;14.40;50.60
3699;DHT22;1865;50.918;7.092;2023-05-28T03:05:22;14.50;50.70
3699;DHT22;1865;50.918;7.092;2023-05-28T03:07:48;14.40;50.10
3699;DHT22;1865;50.918;7.092;2023-05-28T03:10:14;14.30;50.50
3699;DHT22;1865;50.918;7.092;2023-05-28T03:12:39;14.30;50.40
3699;DHT22;1865;50.918;7.092;2023-05-28T03:15:05;14.20;50.90
3699;DHT22;1865;50.918;7.092;2023-05-28T03:17:31;14.30;51.00
3699;DHT22;1865;50.918;7.092;2023-05-28T03:19:56;14.30;50.70
3699;DHT22;1865;50.918;7.092;2023-05-28T03:22:22;14.30;50.10
3699;DHT22;1865;50.918;7.092;2023-05-28T03:24:48;14.30;50.50
3699;DHT22;1865;50.918;7.092;2023-05-28T03:27:13;14.30;50.60
3699;DHT22;1865;50.918;7.092;2023-05-28T03:29:39;14.20;50.70
3699;DHT22;1865;50.918;7.092;2023-05-28T03:32:04;14.20;51.00
3699;DHT22;1865;50.918;7.092;2023-05-28T03:34:30;14.10;50.80
3699;DHT22;1865;50.918;7.092;2023-05-28T03:36:56;14.00;51.40
3699;DHT22;1865;50.918;7.092;2023-05-28T03:39:21;14.00;51.50
3699;DHT22;1865;50.918;7.092;2023-05-28T03:41:47;14.00;51.10
3699;DHT22;1865;50.918;7.092;2023-05-28T03:44:14;14.10;51.00
3699;DHT22;1865;50.918;7.092;2023-05-28T03:46:41;14.00;51.20
3699;DHT22;1865;50.918;7.092;2023-05-28T03:49:07;14.00;51.40
3699;DHT22;1865;50.918;7.092;2023-05-28T03:51:32;13.90;51.50
3699;DHT22;1865;50.918;7.092;2023-05-28T03:53:58;14.00;51.20
3699;DHT22;1865;50.918;7.092;2023-05-28T03:56:23;13.90;51.60
3699;DHT22;1865;50.918;7.092;2023-05-28T03:58:49;13.90;51.70
3699;DHT22;1865;50.918;7.092;2023-05-28T04:01:15;13.90;51.90
3699;DHT22;1865;50.918;7.092;2023-05-28T04:03:41;13.90;51.30
3699;DHT22;1865;50.918;7.092;2023-05-28T04:06:06;13.90;51.00
3699;DHT22;1865;50.918;7.092;2023-05-28T04:08:32;13.90;51.20
3699;DHT22;1865;50.918;7.092;2023-05-28T04:10:58;13.90;51.30
3699;DHT22;1865;50.918;7.092;2023-05-28T04:13:23;14.00;51.50
3699;DHT22;1865;50.918;7.092;2023-05-28T04:15:49;14.10;51.60
3699;DHT22;1865;50.918;7.092;2023-05-28T04:18:14;14.10;50.90
3699;DHT22;1865;50.918;7.092;2023-05-28T04:20:40;14.10;50.50
3699;DHT22;1865;50.918;7.092;2023-05-28T04:23:07;14.10;50.90
3699;DHT22;1865;50.918;7.092;2023-05-28T04:25:33;14.10;51.00
3699;DHT22;1865;50.918;7.092;2023-05-28T04:27:58;14.10;51.30
3699;DHT22;1865;50.918;7.092;2023-05-28T04:30:26;14.10;51.10
3699;DHT22;1865;50.918;7.092;2023-05-28T04:32:51;14.20;51.20
3699;DHT22;1865;50.918;7.092;2023-05-28T04:35:17;14.30;50.90
3699;DHT22;1865;50.918;7.092;2023-05-28T04:37:43;14.30;50.90
3699;DHT22;1865;50.918;7.092;2023-05-28T04:40:10;14.30;51.10
3699;DHT22;1865;50.918;7.092;2023-05-28T04:42:39;14.40;51.10
3699;DHT22;1865;50.918;7.092;2023-05-28T04:45:06;14.50;50.80
3699;DHT22;1865;50.918;7.092;2023-05-28T04:47:33;14.50;50.70
3699;DHT22;1865;50.918;7.092;2023-05-28T04:50:00;14.50;50.80
3699;DHT22;1865;50.918;7.092;2023-05-28T04:52:26;14.60;50.70
3699;DHT22;1865;50.918;7.092;2023-05-28T04:54:51;14.70;50.70
3699;DHT22;1865;50.918;7.092;2023-05-28T04:57:17;14.70;50.80
3699;DHT22;1865;50.918;7.092;2023-05-28T04:59:43;14.70;50.80
3699;DHT22;1865;50.918;7.092;2023-05-28T05:02:09;14.70;50.50
3699;DHT22;1865;50.918;7.092;2023-05-28T05:04:34;14.80;51.30
3699;DHT22;1865;50.918;7.092;2023-05-28T05:07:00;14.90;50.90
3699;DHT22;1865;50.918;7.092;2023-05-28T05:09:26;15.00;50.90
3699;DHT22;1865;50.918;7.092;2023-05-28T05:11:52;15.00;51.00
3699;DHT22;1865;50.918;7.092;2023-05-28T05:14:18;15.10;51.20
3699;DHT22;1865;50.918;7.092;2023-05-28T05:16:43;15.10;51.30
3699;DHT22;1865;50.918;7.092;2023-05-28T05:19:09;15.10;51.10
3699;DHT22;1865;50.918;7.092;2023-05-28T05:21:35;15.20;50.90
3699;DHT22;1865;50.918;7.092;2023-05-28T05:24:01;15.30;51.00
3699;DHT22;1865;50.918;7.092;2023-05-28T05:26:26;15.30;50.80
3699;DHT22;1865;50.918;7.092;2023-05-28T05:28:52;15.40;50.60
3699;DHT22;1865;50.918;7.092;2023-05-28T05:31:17;15.50;50.40
3699;DHT22;1865;50.918;7.092;2023-05-28T05:33:43;15.70;49.70
3699;DHT22;1865;50.918;7.092;2023-05-28T05:36:09;15.80;49.30
3699;DHT22;1865;50.918;7.092;2023-05-28T05:38:36;16.00;48.80
3699;DHT22;1865;50.918;7.092;2023-05-28T05:41:01;16.10;48.70
3699;DHT22;1865;50.918;7.092;2023-05-28T05:43:27;16.20;48.50
3699;DHT22;1865;50.918;7.092;2023-05-28T05:45:52;16.30;48.60
3699;DHT22;1865;50.918;7.092;2023-05-28T05:48:18;16.40;48.30
3699;DHT22;1865;50.918;7.092;2023-05-28T05:50:48;16.50;48.20
3699;DHT22;1865;50.918;7.092;2023-05-28T05:53:14;16.50;48.10
3699;DHT22;1865;50.918;7.092;2023-05-28T05:55:39;16.60;48.00
3699;DHT22;1865;50.918;7.092;2023-05-28T05:58:05;16.70;47.80
3699;DHT22;1865;50.918;7.092;2023-05-28T06:00:31;16.80;47.80
3699;DHT22;1865;50.918;7.092;2023-05-28T06:02:56;16.90;47.80
3699;DHT22;1865;50.918;7.092;2023-05-28T06:05:22;17.00;47.50
3699;DHT22;1865;50.918;7.092;2023-05-28T06:07:47;16.90;47.20
3699;DHT22;1865;50.918;7.092;2023-05-28T06:10:13;17.00;47.20
3699;DHT22;1865;50.918;7.092;2023-05-28T06:12:38;17.10;47.00
3699;DHT22;1865;50.918;7.092;2023-05-28T06:15:04;17.20;46.70
3699;DHT22;1865;50.918;7.092;2023-05-28T06:17:31;17.40;46.50
3699;DHT22;1865;50.918;7.092;2023-05-28T06:19:58;17.40;45.80
3699;DHT22;1865;50.918;7.092;2023-05-28T06:22:24;17.50;45.70
3699;DHT22;1865;50.918;7.092;2023-05-28T06:24:49;17.60;45.80
3699;DHT22;1865;50.918;7.092;2023-05-28T06:27:17;17.70;45.50
3699;DHT22;1865;50.918;7.092;2023-05-28T06:29:43;17.80;45.00
3699;DHT22;1865;50.918;7.092;2023-05-28T06:32:09;17.90;45.00
3699;DHT22;1865;50.918;7.092;2023-05-28T06:37:02;18.10;44.60
3699;DHT22;1865;50.918;7.092;2023-05-28T06:39:28;18.10;44.50
3699;DHT22;1865;50.918;7.092;2023-05-28T06:41:54;18.10;44.40
3699;DHT22;1865;50.918;7.092;2023-05-28T06:44:19;18.20;44.30
3699;DHT22;1865;50.918;7.092;2023-05-28T06:46:45;18.20;44.20
3699;DHT22;1865;50.918;7.092;2023-05-28T06:49:11;18.40;44.20
3699;DHT22;1865;50.918;7.092;2023-05-28T06:51:36;18.50;44.10
3699;DHT22;1865;50.918;7.092;2023-05-28T06:54:02;18.60;44.20
3699;DHT22;1865;50.918;7.092;2023-05-28T06:56:28;18.70;44.00
3699;DHT22;1865;50.918;7.092;2023-05-28T06:58:53;18.90;43.80
3699;DHT22;1865;50.918;7.092;2023-05-28T07:01:20;18.90;43.90
3699;DHT22;1865;50.918;7.092;2023-05-28T07:03:46;19.00;43.60
3699;DHT22;1865;50.918;7.092;2023-05-28T07:06:12;19.10;43.60
3699;DHT22;1865;50.918;7.092;2023-05-28T07:08:37;19.20;43.70
3699;DHT22;1865;50.918;7.092;2023-05-28T07:11:10;19.40;43.70
3699;DHT22;1865;50.918;7.092;2023-05-28T07:13:36;19.40;42.20
3699;DHT22;1865;50.918;7.092;2023-05-28T07:16:02;19.50;42.20
3699;DHT22;1865;50.918;7.092;2023-05-28T07:18:27;19.60;42.00
3699;DHT22;1865;50.918;7.092;2023-05-28T07:20:53;19.70;42.10
3699;DHT22;1865;50.918;7.092;2023-05-28T07:23:20;19.80;41.80
3699;DHT22;1865;50.918;7.092;2023-05-28T07:25:45;19.90;41.90
3699;DHT22;1865;50.918;7.092;2023-05-28T07:28:11;20.00;41.60
3699;DHT22;1865;50.918;7.092;2023-05-28T07:30:37;20.10;41.50
3699;DHT22;1865;50.918;7.092;2023-05-28T07:33:02;20.30;40.20
3699;DHT22;1865;50.918;7.092;2023-05-28T07:35:28;20.40;40.10
3699;DHT22;1865;50.918;7.092;2023-05-28T07:37:53;20.40;40.70
3699;DHT22;1865;50.918;7.092;2023-05-28T07:40:19;20.50;40.20
3699;DHT22;1865;50.918;7.092;2023-05-28T07:42:45;20.50;39.80
3699;DHT22;1865;50.918;7.092;2023-05-28T07:45:11;20.60;39.80
3699;DHT22;1865;50.918;7.092;2023-05-28T07:47:36;20.70;39.60
3699;DHT22;1865;50.918;7.092;2023-05-28T07:50:02;20.80;39.30
3699;DHT22;1865;50.918;7.092;2023-05-28T07:52:29;20.90;38.30
3699;DHT22;1865;50.918;7.092;2023-05-28T07:54:58;20.90;37.70
3699;DHT22;1865;50.918;7.092;2023-05-28T07:57:24;20.90;36.20
3699;DHT22;1865;50.918;7.092;2023-05-28T07:59:50;21.10;35.30
3699;DHT22;1865;50.918;7.092;2023-05-28T08:02:16;21.20;34.40
3699;DHT22;1865;50.918;7.092;2023-05-28T08:04:42;21.20;35.30
3699;DHT22;1865;50.918;7.092;2023-05-28T08:07:07;21.30;36.40
3699;DHT22;1865;50.918;7.092;2023-05-28T08:09:35;21.40;36.60
3699;DHT22;1865;50.918;7.092;2023-05-28T08:12:01;21.60;36.00
3699;DHT22;1865;50.918;7.092;2023-05-28T08:14:27;21.70;36.40
3699;DHT22;1865;50.918;7.092;2023-05-28T08:16:53;21.80;35.50
3699;DHT22;1865;50.918;7.092;2023-05-28T08:19:18;21.90;35.10
3699;DHT22;1865;50.918;7.092;2023-05-28T08:21:44;22.10;35.70
3699;DHT22;1865;50.918;7.092;2023-05-28T08:24:10;22.20;35.90
3699;DHT22;1865;50.918;7.092;2023-05-28T08:26:39;22.20;35.30
3699;DHT22;1865;50.918;7.092;2023-05-28T08:29:04;22.20;36.50
3699;DHT22;1865;50.918;7.092;2023-05-28T08:31:31;22.30;35.60
3699;DHT22;1865;50.918;7.092;2023-05-28T08:33:57;22.40;36.80
3699;DHT22;1865;50.918;7.092;2023-05-28T08:36:23;22.60;36.00
3699;DHT22;1865;50.918;7.092;2023-05-28T08:38:49;22.70;36.60
3699;DHT22;1865;50.918;7.092;2023-05-28T08:41:15;22.70;35.20
3699;DHT22;1865;50.918;7.092;2023-05-28T08:43:41;22.60;33.90
3699;DHT22;1865;50.918;7.092;2023-05-28T08:46:06;22.60;35.20
3699;DHT22;1865;50.918;7.092;2023-05-28T08:48:36;22.70;36.40
3699;DHT22;1865;50.918;7.092;2023-05-28T08:51:02;22.70;35.40
3699;DHT22;1865;50.918;7.092;2023-05-28T08:53:31;22.80;35.30
3699;DHT22;1865;50.918;7.092;2023-05-28T08:55:58;22.90;36.40
3699;DHT22;1865;50.918;7.092;2023-05-28T08:58:24;22.90;35.70
3699;DHT22;1865;50.918;7.092;2023-05-28T09:00:50;23.00;35.40
3699;DHT22;1865;50.918;7.092;2023-05-28T09:03:16;23.00;35.00
3699;DHT22;1865;50.918;7.092;2023-05-28T09:05:42;23.10;34.40
3699;DHT22;1865;50.918;7.092;2023-05-28T09:08:09;23.10;34.20
3699;DHT22;1865;50.918;7.092;2023-05-28T09:10:36;23.40;34.80
3699;DHT22;1865;50.918;7.092;2023-05-28T09:13:02;23.50;34.30
3699;DHT22;1865;50.918;7.092;2023-05-28T09:15:28;23.70;33.70
3699;DHT22;1865;50.918;7.092;2023-05-28T09:17:55;23.70;33.00
3699;DHT22;1865;50.918;7.092;2023-05-28T09:20:21;23.60;33.40
3699;DHT22;1865;50.918;7.092;2023-05-28T09:23:06;23.70;32.80
3699;DHT22;1865;50.918;7.092;2023-05-28T09:25:35;24.00;33.00
3699;DHT22;1865;50.918;7.092;2023-05-28T09:28:02;23.90;33.30
3699;DHT22;1865;50.918;7.092;2023-05-28T09:30:28;24.00;32.00
3699;DHT22;1865;50.918;7.092;2023-05-28T09:33:05;24.00;32.70
3699;DHT22;1865;50.918;7.092;2023-05-28T09:35:31;24.10;31.80
3699;DHT22;1865;50.918;7.092;2023-05-28T09:38:06;24.30;31.30
3699;DHT22;1865;50.918;7.092;2023-05-28T09:40:43;24.50;32.80
3699;DHT22;1865;50.918;7.092;2023-05-28T09:43:09;24.60;32.10
3699;DHT22;1865;50.918;7.092;2023-05-28T09:45:36;24.60;31.30
3699;DHT22;1865;50.918;7.092;2023-05-28T09:48:02;24.60;30.80
3699;DHT22;1865;50.918;7.092;2023-05-28T09:50:28;24.70;31.30
3699;DHT22;1865;50.918;7.092;2023-05-28T09:52:58;25.00;31.50
3699;DHT22;1865;50.918;7.092;2023-05-28T09:55:28;25.00;30.80
3699;DHT22;1865;50.918;7.092;2023-05-28T09:58:04;25.20;30.90
3699;DHT22;1865;50.918;7.092;2023-05-28T10:00:40;25.30;30.40
3699;DHT22;1865;50.918;7.092;2023-05-28T10:05:44;25.50;30.60
3699;DHT22;1865;50.918;7.092;2023-05-28T10:08:13;25.60;29.80
3699;DHT22;1865;50.918;7.092;2023-05-28T10:10:41;25.70;29.00
3699;DHT22;1865;50.918;7.092;2023-05-28T10:13:08;25.80;28.90
3699;DHT22;1865;50.918;7.092;2023-05-28T10:15:35;25.70;28.50
3699;DHT22;1865;50.918;7.092;2023-05-28T10:18:02;25.50;28.20
3699;DHT22;1865;50.918;7.092;2023-05-28T10:20:29;25.50;28.00
3699;DHT22;1865;50.918;7.092;2023-05-28T10:22:55;25.50;27.80
3699;DHT22;1865;50.918;7.092;2023-05-28T10:25:21;25.60;27.30
3699;DHT22;1865;50.918;7.092;2023-05-28T10:27:48;25.70;26.80
3699;DHT22;1865;50.918;7.092;2023-05-28T10:30:36;26.10;27.30
3699;DHT22;1865;50.918;7.092;2023-05-28T10:33:10;26.20;26.30
3699;DHT22;1865;50.918;7.092;2023-05-28T10:35:35;26.40;26.60
3699;DHT22;1865;50.918;7.092;2023-05-28T10:38:14;26.50;26.80
3699;DHT22;1865;50.918;7.092;2023-05-28T10:40:40;26.60;27.10
3699;DHT22;1865;50.918;7.092;2023-05-28T10:48:39;26.70;24.70
3699;DHT22;1865;50.918;7.092;2023-05-28T10:51:05;26.70;24.90
3699;DHT22;1865;50.918;7.092;2023-05-28T10:53:31;26.80;24.50
3699;DHT22;1865;50.918;7.092;2023-05-28T10:55:57;27.00;25.10
3699;DHT22;1865;50.918;7.092;2023-05-28T10:58:42;27.20;24.40
3699;DHT22;1865;50.918;7.092;2023-05-28T11:03:44;27.70;21.80
3699;DHT22;1865;50.918;7.092;2023-05-28T11:06:10;28.10;22.00
3699;DHT22;1865;50.918;7.092;2023-05-28T11:08:47;28.80;20.50
3699;DHT22;1865;50.918;7.092;2023-05-28T11:11:17;29.50;19.80
3699;DHT22;1865;50.918;7.092;2023-05-28T11:13:44;29.80;20.30
3699;DHT22;1865;50.918;7.092;2023-05-28T11:16:11;29.90;19.90
3699;DHT22;1865;50.918;7.092;2023-05-28T11:18:37;29.90;19.50
3699;DHT22;1865;50.918;7.092;2023-05-28T11:21:07;30.30;19.50
3699;DHT22;1865;50.918;7.092;2023-05-28T11:23:35;30.70;17.80
3699;DHT22;1865;50.918;7.092;2023-05-28T11:26:05;30.40;18.10
3699;DHT22;1865;50.918;7.092;2023-05-28T11:28:31;30.10;19.40
3699;DHT22;1865;50.918;7.092;2023-05-28T11:30:58;29.80;19.60
3699;DHT22;1865;50.918;7.092;2023-05-28T11:33:26;29.50;19.10
3699;DHT22;1865;50.918;7.092;2023-05-28T11:35:57;29.20;19.80
3699;DHT22;1865;50.918;7.092;2023-05-28T11:38:23;29.00;20.00
3699;DHT22;1865;50.918;7.092;2023-05-28T11:40:49;28.80;19.40
3699;DHT22;1865;50.918;7.092;2023-05-28T11:43:14;28.80;19.60
3699;DHT22;1865;50.918;7.092;2023-05-28T11:45:40;28.60;20.00
3699;DHT22;1865;50.918;7.092;2023-05-28T11:48:12;28.60;20.40
3699;DHT22;1865;50.918;7.092;2023-05-28T11:50:38;28.50;21.10
3699;DHT22;1865;50.918;7.092;2023-05-28T11:53:04;28.50;19.60
3699;DHT22;1865;50.918;7.092;2023-05-28T11:55:30;28.60;20.00
3699;DHT22;1865;50.918;7.092;2023-05-28T11:57:55;28.70;19.30
3699;DHT22;1865;50.918;7.092;2023-05-28T12:00:30;29.00;21.10
3699;DHT22;1865;50.918;7.092;2023-05-28T12:02:59;29.10;19.80
3699;DHT22;1865;50.918;7.092;2023-05-28T12:05:24;29.20;19.80
3699;DHT22;1865;50.918;7.092;2023-05-28T12:07:52;29.40;20.30
3699;DHT22;1865;50.918;7.092;2023-05-28T12:10:20;29.70;19.60
3699;DHT22;1865;50.918;7.092;2023-05-28T12:12:50;30.10;19.30
3699;DHT22;1865;50.918;7.092;2023-05-28T12:15:20;30.40;18.60
3699;DHT22;1865;50.918;7.092;2023-05-28T12:17:46;30.50;19.50
3699;DHT22;1865;50.918;7.092;2023-05-28T12:22:42;30.80;19.10
3699;DHT22;1865;50.918;7.092;2023-05-28T12:25:08;31.00;19.10
3699;DHT22;1865;50.918;7.092;2023-05-28T12:27:35;31.10;19.70
3699;DHT22;1865;50.918;7.092;2023-05-28T12:30:01;31.20;19.60
3699;DHT22;1865;50.918;7.092;2023-05-28T12:32:27;31.10;19.40
3699;DHT22;1865;50.918;7.092;2023-05-28T12:34:53;31.20;19.60
3699;DHT22;1865;50.918;7.092;2023-05-28T12:37:22;31.40;19.50
3699;DHT22;1865;50.918;7.092;2023-05-28T12:39:48;31.80;18.10
3699;DHT22;1865;50.918;7.092;2023-05-28T12:42:13;32.60;18.00
3699;DHT22;1865;50.918;7.092;2023-05-28T12:44:39;33.70;17.90
3699;DHT22;1865;50.918;7.092;2023-05-28T12:47:05;33.90;17.00
3699;DHT22;1865;50.918;7.092;2023-05-28T12:49:30;33.50;17.90
3699;DHT22;1865;50.918;7.092;2023-05-28T12:51:56;33.00;19.00
3699;DHT22;1865;50.918;7.092;2023-05-28T12:54:22;32.10;19.00
3699;DHT22;1865;50.918;7.092;2023-05-28T12:56:47;31.70;19.30
3699;DHT22;1865;50.918;7.092;2023-05-28T12:59:23;31.40;20.00
3699;DHT22;1865;50.918;7.092;2023-05-28T13:01:49;31.10;20.10
3699;DHT22;1865;50.918;7.092;2023-05-28T13:04:15;30.90;20.20
3699;DHT22;1865;50.918;7.092;2023-05-28T13:06:41;31.00;20.20
3699;DHT22;1865;50.918;7.092;2023-05-28T13:09:07;31.20;21.00
3699;DHT22;1865;50.918;7.092;2023-05-28T13:11:38;31.00;20.00
3699;DHT22;1865;50.918;7.092;2023-05-28T13:14:03;31.60;20.50
3699;DHT22;1865;50.918;7.092;2023-05-28T13:16:29;32.10;20.00
3699;DHT22;1865;50.918;7.092;2023-05-28T13:18:54;32.80;19.50
3699;DHT22;1865;50.918;7.092;2023-05-28T13:21:21;33.30;19.30
3699;DHT22;1865;50.918;7.092;2023-05-28T13:23:47;34.70;17.20
3699;DHT22;1865;50.918;7.092;2023-05-28T13:26:13;35.00;18.00
3699;DHT22;1865;50.918;7.092;2023-05-28T13:28:39;37.50;15.90
3699;DHT22;1865;50.918;7.092;2023-05-28T13:31:04;37.70;16.20
3699;DHT22;1865;50.918;7.092;2023-05-28T13:33:30;38.50;15.80
3699;DHT22;1865;50.918;7.092;2023-05-28T13:35:55;39.30;15.90
3699;DHT22;1865;50.918;7.092;2023-05-28T13:38:21;40.40;15.20
3699;DHT22;1865;50.918;7.092;2023-05-28T13:40:47;41.10;14.80
3699;DHT22;1865;50.918;7.092;2023-05-28T13:43:12;41.90;14.40
3699;DHT22;1865;50.918;7.092;2023-05-28T13:45:39;42.10;14.30
3699;DHT22;1865;50.918;7.092;2023-05-28T13:48:06;42.10;14.20
3699;DHT22;1865;50.918;7.092;2023-05-28T13:50:33;42.00;14.20
3699;DHT22;1865;50.918;7.092;2023-05-28T13:52:58;42.40;13.30
3699;DHT22;1865;50.918;7.092;2023-05-28T13:55:24;42.40;13.80
3699;DHT22;1865;50.918;7.092;2023-05-28T13:57:51;42.80;13.50
3699;DHT22;1865;50.918;7.092;2023-05-28T14:00:16;43.00;13.40
3699;DHT22;1865;50.918;7.092;2023-05-28T14:02:42;42.50;13.60
3699;DHT22;1865;50.918;7.092;2023-05-28T14:05:08;41.50;13.80
3699;DHT22;1865;50.918;7.092;2023-05-28T14:07:34;40.10;14.20
3699;DHT22;1865;50.918;7.092;2023-05-28T14:10:01;38.70;14.60
3699;DHT22;1865;50.918;7.092;2023-05-28T14:12:27;37.10;16.00
3699;DHT22;1865;50.918;7.092;2023-05-28T14:14:52;35.90;16.60
3699;DHT22;1865;50.918;7.092;2023-05-28T14:17:18;34.90;16.90
3699;DHT22;1865;50.918;7.092;2023-05-28T14:19:43;34.10;17.60
3699;DHT22;1865;50.918;7.092;2023-05-28T14:22:10;33.40;18.00
3699;DHT22;1865;50.918;7.092;2023-05-28T14:24:35;33.00;18.70
3699;DHT22;1865;50.918;7.092;2023-05-28T14:27:01;32.50;18.60
3699;DHT22;1865;50.918;7.092;2023-05-28T14:29:27;32.20;18.90
3699;DHT22;1865;50.918;7.092;2023-05-28T14:31:52;32.00;19.60
3699;DHT22;1865;50.918;7.092;2023-05-28T14:34:18;31.80;19.60
3699;DHT22;1865;50.918;7.092;2023-05-28T14:36:43;31.40;19.80
3699;DHT22;1865;50.918;7.092;2023-05-28T14:39:09;31.40;19.80
3699;DHT22;1865;50.918;7.092;2023-05-28T14:41:34;31.20;20.20
3699;DHT22;1865;50.918;7.092;2023-05-28T14:44:00;31.10;20.00
3699;DHT22;1865;50.918;7.092;2023-05-28T14:46:25;31.00;20.40
3699;DHT22;1865;50.918;7.092;2023-05-28T14:48:51;30.90;19.90
3699;DHT22;1865;50.918;7.092;2023-05-28T14:51:17;30.80;20.50
3699;DHT22;1865;50.918;7.092;2023-05-28T14:53:42;30.70;20.10
3699;DHT22;1865;50.918;7.092;2023-05-28T14:56:08;30.70;20.30
3699;DHT22;1865;50.918;7.092;2023-05-28T14:58:34;30.70;20.30
3699;DHT22;1865;50.918;7.092;2023-05-28T15:01:00;30.50;19.70
3699;DHT22;1865;50.918;7.092;2023-05-28T15:03:31;30.50;20.00
3699;DHT22;1865;50.918;7.092;2023-05-28T15:05:57;30.50;20.50
3699;DHT22;1865;50.918;7.092;2023-05-28T15:08:23;30.40;20.10
3699;DHT22;1865;50.918;7.092;2023-05-28T15:10:48;30.10;20.60
3699;DHT22;1865;50.918;7.092;2023-05-28T15:13:14;30.00;20.90
3699;DHT22;1865;50.918;7.092;2023-05-28T15:15:40;29.90;20.80
3699;DHT22;1865;50.918;7.092;2023-05-28T15:18:05;29.80;20.90
3699;DHT22;1865;50.918;7.092;2023-05-28T15:20:31;29.70;21.00
3699;DHT22;1865;50.918;7.092;2023-05-28T15:22:56;29.80;21.50
3699;DHT22;1865;50.918;7.092;2023-05-28T15:25:22;29.60;20.90
3699;DHT22;1865;50.918;7.092;2023-05-28T15:27:49;29.60;21.40
3699;DHT22;1865;50.918;7.092;2023-05-28T15:30:21;29.60;21.30
3699;DHT22;1865;50.918;7.092;2023-05-28T15:32:48;29.60;21.30
3699;DHT22;1865;50.918;7.092;2023-05-28T15:35:14;29.60;21.70
3699;DHT22;1865;50.918;7.092;2023-05-28T15:37:40;29.60;21.80
3699;DHT22;1865;50.918;7.092;2023-05-28T15:40:07;29.50;21.50
3699;DHT22;1865;50.918;7.092;2023-05-28T15:42:39;29.40;21.50
3699;DHT22;1865;50.918;7.092;2023-05-28T15:45:06;29.40;22.20
3699;DHT22;1865;50.918;7.092;2023-05-28T15:47:32;29.30;22.50
3699;DHT22;1865;50.918;7.092;2023-05-28T15:49:57;29.30;22.70
3699;DHT22;1865;50.918;7.092;2023-05-28T15:52:23;29.30;23.10
3699;DHT22;1865;50.918;7.092;2023-05-28T15:54:48;29.30;23.10
3699;DHT22;1865;50.918;7.092;2023-05-28T15:57:14;29.40;23.40
3699;DHT22;1865;50.918;7.092;2023-05-28T15:59:40;29.40;23.00
3699;DHT22;1865;50.918;7.092;2023-05-28T16:02:08;29.40;23.00
3699;DHT22;1865;50.918;7.092;2023-05-28T16:04:36;29.40;23.00
3699;DHT22;1865;50.918;7.092;2023-05-28T16:07:08;29.30;23.40
3699;DHT22;1865;50.918;7.092;2023-05-28T16:09:34;29.30;23.20
3699;DHT22;1865;50.918;7.092;2023-05-28T16:12:00;29.20;23.80